Time;durP1;ratioP1;P1;durP2;ratioP2;P2;SDS_P1;SDS_P2;PMS_P1;PMS_P2;Temp;Humidity;BMP_temperature;BMP_pressure;BME280_temperature;BME280_humidity;BME280_pressure;Samples;Min_cycle;Max_cycle;Signal;HPM_P1;HPM_P2
2023/09/16 00:01:12;;;;;;;15.57;10.13;;;15.90;99.90;;;;;;5011908;28;20042;-76
2023/09/16 00:03:37;;;;;;;14.63;10.57;;;15.90;99.90;;;;;;5010441;28;20049;-77
2023/09/16 00:06:04;;;;;;;16.17;10.80;;;15.90;99.90;;;;;;4994217;28;20034;-77
2023/09/16 00:08:32;;;;;;;15.73;10.57;;;15.90;99.90;;;;;;5010223;28;20422;-77
2023/09/16 00:10:58;;;;;;;12.80;10.82;;;15.90;99.90;;;;;;4994161;28;20092;-77
2023/09/16 00:13:23;;;;;;;15.30;12.27;;;15.90;99.90;;;;;;5010957;28;20041;-77
2023/09/16 00:15:49;;;;;;;16.33;10.95;;;15.80;99.90;;;;;;5007838;28;20044;-77
2023/09/16 00:18:16;;;;;;;13.90;11.13;;;15.80;99.90;;;;;;5010450;28;20119;-77
2023/09/16 00:20:42;;;;;;;16.60;11.02;;;15.80;99.90;;;;;;5011366;28;20052;-77
2023/09/16 00:23:09;;;;;;;15.80;10.63;;;15.80;99.90;;;;;;5010513;28;20049;-77
2023/09/16 00:25:36;;;;;;;16.95;11.43;;;15.70;99.90;;;;;;5010323;28;20091;-77
2023/09/16 00:28:01;;;;;;;15.82;10.43;;;15.80;99.90;;;;;;5011925;28;20045;-77
2023/09/16 00:30:27;;;;;;;15.43;11.88;;;15.70;99.90;;;;;;5010216;28;20045;-77
2023/09/16 00:32:53;;;;;;;18.75;11.23;;;15.70;99.90;;;;;;5011678;28;20498;-77
2023/09/16 00:35:19;;;;;;;15.80;12.20;;;15.70;99.90;;;;;;5011724;28;20045;-77
2023/09/16 00:37:46;;;;;;;16.42;11.98;;;15.60;99.90;;;;;;5010261;28;20468;-76
2023/09/16 00:40:12;;;;;;;18.70;12.93;;;15.50;99.90;;;;;;5011073;28;20046;-76
2023/09/16 00:42:38;;;;;;;15.73;11.73;;;15.50;99.90;;;;;;5011708;28;20046;-77
2023/09/16 00:45:06;;;;;;;18.30;12.55;;;15.40;99.90;;;;;;5010384;28;20034;-77
2023/09/16 00:47:33;;;;;;;18.00;12.35;;;15.50;99.90;;;;;;4997055;28;20089;-77
2023/09/16 00:49:59;;;;;;;16.25;13.02;;;15.50;99.90;;;;;;5013895;28;20421;-77
2023/09/16 00:52:26;;;;;;;15.93;12.50;;;15.40;99.90;;;;;;5014016;28;20048;-77
2023/09/16 00:54:54;;;;;;;16.88;12.52;;;15.40;99.90;;;;;;5015499;28;20074;-76
2023/09/16 00:57:19;;;;;;;16.90;12.35;;;15.40;99.90;;;;;;5014024;28;20046;-76
2023/09/16 00:59:45;;;;;;;19.42;12.43;;;15.40;99.90;;;;;;5014468;28;20034;-75
2023/09/16 01:02:13;;;;;;;19.48;12.90;;;15.30;99.90;;;;;;4997533;28;20040;-76
2023/09/16 01:04:40;;;;;;;23.92;13.90;;;15.30;99.90;;;;;;5013656;28;20125;-76
2023/09/16 01:07:06;;;;;;;17.17;12.10;;;15.30;99.90;;;;;;5015058;28;20097;-75
2023/09/16 01:09:32;;;;;;;15.02;11.95;;;15.30;99.90;;;;;;5013709;28;20050;-76
2023/09/16 01:11:57;;;;;;;17.10;13.30;;;15.30;99.90;;;;;;5013793;28;20493;-75
2023/09/16 01:14:24;;;;;;;18.17;14.18;;;15.20;99.90;;;;;;5015008;28;20045;-76
2023/09/16 01:16:58;;;;;;;16.80;13.52;;;15.20;99.90;;;;;;5014797;28;20413;-76
2023/09/16 01:19:50;;;;;;;19.33;14.13;;;15.10;99.90;;;;;;5013051;28;20038;-76
2023/09/16 01:22:17;;;;;;;18.23;14.32;;;15.10;99.90;;;;;;5013451;28;20081;-76
2023/09/16 01:24:50;;;;;;;17.05;14.05;;;15.10;99.90;;;;;;5013192;28;20054;-76
2023/09/16 01:27:15;;;;;;;18.73;14.02;;;15.10;99.90;;;;;;5014708;28;20046;-77
2023/09/16 01:29:41;;;;;;;23.25;13.48;;;15.00;99.90;;;;;;5013059;28;20145;-77
2023/09/16 01:32:08;;;;;;;19.23;14.07;;;15.00;99.90;;;;;;5014457;28;20038;-75
2023/09/16 01:34:44;;;;;;;18.45;13.77;;;15.00;99.90;;;;;;5013333;28;20723;-75
2023/09/16 01:37:17;;;;;;;24.10;15.90;;;15.10;99.90;;;;;;5014561;28;20052;-78
2023/09/16 01:39:46;;;;;;;22.15;15.35;;;15.00;99.90;;;;;;5012817;28;20120;-78
2023/09/16 01:42:13;;;;;;;18.08;14.65;;;14.90;99.90;;;;;;5013307;28;20033;-75
2023/09/16 01:44:39;;;;;;;23.67;14.32;;;14.90;99.90;;;;;;5014032;28;20048;-76
2023/09/16 01:47:07;;;;;;;19.15;14.80;;;14.90;99.90;;;;;;5012924;28;20042;-76
2023/09/16 01:49:32;;;;;;;19.67;15.00;;;14.90;99.90;;;;;;5012776;28;20073;-75
2023/09/16 01:51:58;;;;;;;24.80;16.20;;;14.90;99.90;;;;;;4996465;28;20094;-75
2023/09/16 01:54:23;;;;;;;19.50;15.35;;;14.90;99.90;;;;;;5012766;28;20038;-75
2023/09/16 01:56:49;;;;;;;20.00;15.90;;;14.90;99.90;;;;;;5013545;28;20042;-75
2023/09/16 01:59:15;;;;;;;21.55;14.98;;;14.90;99.90;;;;;;5013173;28;20034;-76
2023/09/16 02:01:40;;;;;;;19.25;15.32;;;14.90;99.90;;;;;;5012782;28;20134;-75
2023/09/16 02:04:07;;;;;;;26.83;16.08;;;14.90;99.90;;;;;;5012612;28;20413;-75
2023/09/16 02:06:32;;;;;;;21.65;15.60;;;14.90;99.90;;;;;;5012663;28;20060;-75
2023/09/16 02:08:58;;;;;;;26.60;17.35;;;14.90;99.90;;;;;;4995784;28;20045;-76
2023/09/16 02:11:23;;;;;;;20.33;15.60;;;14.80;99.90;;;;;;5012690;28;20490;-76
2023/09/16 02:13:49;;;;;;;23.17;16.50;;;14.80;99.90;;;;;;5012540;28;20514;-75
2023/09/16 02:16:14;;;;;;;22.33;15.48;;;14.80;99.90;;;;;;5012139;28;20647;-75
2023/09/16 02:18:40;;;;;;;22.80;17.55;;;14.80;99.90;;;;;;5012005;28;20331;-75
2023/09/16 02:21:07;;;;;;;22.85;15.93;;;14.80;99.90;;;;;;5013478;28;20038;-75
2023/09/16 02:23:33;;;;;;;21.75;16.55;;;14.70;99.90;;;;;;5012172;28;20046;-76
2023/09/16 02:26:02;;;;;;;23.05;16.88;;;14.70;99.90;;;;;;5012121;28;20044;-75
2023/09/16 02:28:28;;;;;;;24.27;17.10;;;14.70;99.90;;;;;;5011565;28;20037;-75
2023/09/16 02:30:54;;;;;;;22.23;17.67;;;14.70;99.90;;;;;;5013010;28;20046;-75
2023/09/16 02:33:20;;;;;;;23.20;16.63;;;14.60;99.90;;;;;;5013465;28;20113;-75
2023/09/16 02:35:46;;;;;;;23.02;17.10;;;14.70;99.90;;;;;;5013395;28;20096;-75
2023/09/16 02:38:12;;;;;;;21.52;15.98;;;14.60;99.90;;;;;;5011821;28;20048;-75
2023/09/16 02:40:41;;;;;;;21.90;16.98;;;14.70;99.90;;;;;;5011695;28;20053;-75
2023/09/16 02:43:07;;;;;;;22.50;17.17;;;14.60;99.90;;;;;;5012891;28;20066;-75
2023/09/16 02:45:39;;;;;;;21.55;17.10;;;14.70;99.90;;;;;;5011834;28;20049;-75
2023/09/16 02:48:05;;;;;;;23.10;16.88;;;14.70;99.90;;;;;;4995441;28;20073;-75
2023/09/16 02:50:39;;;;;;;22.58;16.20;;;14.70;99.90;;;;;;5011755;28;20069;-75
2023/09/16 02:53:05;;;;;;;21.83;17.27;;;14.70;99.90;;;;;;5012982;28;20405;-75
2023/09/16 02:55:34;;;;;;;21.25;18.02;;;14.70;99.90;;;;;;5011543;28;20042;-75
2023/09/16 02:58:00;;;;;;;22.40;17.33;;;14.60;99.90;;;;;;5012811;28;20040;-75
2023/09/16 03:00:26;;;;;;;22.35;17.95;;;14.60;99.90;;;;;;5010932;28;20547;-75
2023/09/16 03:02:51;;;;;;;25.60;18.00;;;14.60;99.90;;;;;;5011395;28;20042;-76
2023/09/16 03:05:17;;;;;;;24.77;18.15;;;14.60;99.90;;;;;;5012879;28;20041;-76
2023/09/16 03:07:44;;;;;;;25.33;17.50;;;14.60;99.90;;;;;;5012803;28;20030;-76
2023/09/16 03:10:10;;;;;;;24.10;18.77;;;14.60;99.90;;;;;;5010567;28;20080;-76
2023/09/16 03:12:36;;;;;;;21.77;17.85;;;14.60;99.90;;;;;;5011602;28;20072;-76
2023/09/16 03:15:01;;;;;;;25.40;17.52;;;14.60;99.90;;;;;;5012821;28;20555;-75
2023/09/16 03:17:27;;;;;;;24.33;18.25;;;14.50;99.90;;;;;;5011136;28;20040;-75
2023/09/16 03:19:53;;;;;;;21.20;16.83;;;14.50;99.90;;;;;;5012141;28;20176;-76
2023/09/16 03:22:18;;;;;;;24.02;18.27;;;14.50;99.90;;;;;;5010997;28;20125;-76
2023/09/16 03:24:44;;;;;;;26.17;18.27;;;14.50;99.90;;;;;;5011067;28;20046;-79
2023/09/16 03:27:09;;;;;;;24.70;18.52;;;14.60;99.90;;;;;;5010979;28;20034;-78
2023/09/16 03:29:35;;;;;;;26.42;18.83;;;14.60;99.90;;;;;;5012103;28;20038;-78
2023/09/16 03:32:01;;;;;;;25.42;18.98;;;14.60;99.90;;;;;;4994905;28;20030;-78
2023/09/16 03:34:27;;;;;;;22.15;18.65;;;14.60;99.90;;;;;;5011100;28;20100;-75
2023/09/16 03:36:53;;;;;;;26.50;18.95;;;14.70;99.90;;;;;;5011264;28;20053;-76
2023/09/16 03:39:19;;;;;;;23.40;18.40;;;14.70;99.90;;;;;;5010527;28;20521;-76
2023/09/16 03:41:45;;;;;;;24.98;18.42;;;14.70;99.90;;;;;;5012324;28;20120;-77
2023/09/16 03:44:12;;;;;;;22.65;17.25;;;14.80;99.90;;;;;;5010856;28;20128;-76
2023/09/16 03:46:39;;;;;;;19.23;15.75;;;14.80;99.90;;;;;;5010884;28;20088;-78
2023/09/16 03:49:05;;;;;;;18.55;15.13;;;14.80;99.90;;;;;;5011671;28;20498;-76
2023/09/16 03:51:33;;;;;;;18.45;14.95;;;14.70;99.90;;;;;;4994471;28;20034;-76
2023/09/16 03:53:58;;;;;;;19.95;16.80;;;14.60;99.90;;;;;;4994403;28;20108;-76
2023/09/16 03:56:24;;;;;;;20.75;15.57;;;14.60;99.90;;;;;;5010822;28;20489;-76
2023/09/16 03:58:50;;;;;;;19.58;15.98;;;14.60;99.90;;;;;;5010009;28;20099;-76
2023/09/16 04:01:16;;;;;;;19.42;15.40;;;14.60;99.90;;;;;;4994216;28;20041;-76
2023/09/16 04:03:42;;;;;;;20.88;16.73;;;14.50;99.90;;;;;;5011862;28;20110;-76
2023/09/16 04:06:08;;;;;;;19.40;15.60;;;14.50;99.90;;;;;;5010865;28;20504;-76
2023/09/16 04:08:34;;;;;;;23.40;18.33;;;14.50;99.90;;;;;;5010363;28;20125;-76
2023/09/16 04:10:59;;;;;;;22.75;17.00;;;14.50;99.90;;;;;;5011506;28;20044;-76
2023/09/16 04:13:25;;;;;;;20.67;17.23;;;14.40;99.90;;;;;;5009827;28;20042;-77
2023/09/16 04:15:51;;;;;;;24.50;18.13;;;14.40;99.90;;;;;;5009616;28;20056;-77
2023/09/16 04:18:17;;;;;;;26.70;20.00;;;14.40;99.90;;;;;;5010315;28;20042;-76
2023/09/16 04:20:45;;;;;;;23.15;18.10;;;14.40;99.90;;;;;;5009838;28;20069;-76
2023/09/16 04:23:11;;;;;;;20.25;16.02;;;14.40;99.90;;;;;;5013856;28;20060;-77
2023/09/16 04:25:37;;;;;;;21.48;17.27;;;14.40;99.90;;;;;;5015339;28;20125;-76
2023/09/16 04:28:03;;;;;;;24.02;16.95;;;14.30;99.90;;;;;;5014322;28;20038;-76
2023/09/16 04:30:29;;;;;;;19.83;17.30;;;14.30;99.90;;;;;;5014767;28;20045;-76
2023/09/16 04:32:55;;;;;;;21.75;18.23;;;14.30;99.90;;;;;;5015736;28;20037;-76
2023/09/16 04:35:21;;;;;;;22.73;18.65;;;14.30;99.90;;;;;;5015733;28;20126;-76
2023/09/16 04:37:46;;;;;;;24.63;18.25;;;14.20;99.90;;;;;;5014255;28;20041;-76
2023/09/16 04:40:12;;;;;;;21.85;18.13;;;14.30;99.90;;;;;;5013811;28;20041;-76
2023/09/16 04:42:40;;;;;;;26.65;19.65;;;14.20;99.90;;;;;;5014208;28;20187;-77
2023/09/16 04:45:06;;;;;;;24.48;18.92;;;14.20;99.90;;;;;;5014046;28;20079;-76
2023/09/16 04:47:33;;;;;;;20.95;17.45;;;14.20;99.90;;;;;;5014177;28;20128;-77
2023/09/16 04:49:59;;;;;;;28.50;20.10;;;14.20;99.90;;;;;;5013731;28;20042;-76
2023/09/16 04:52:27;;;;;;;26.63;19.90;;;14.20;99.90;;;;;;5013975;28;20070;-76
2023/09/16 04:54:53;;;;;;;23.48;19.58;;;14.20;99.90;;;;;;5014917;28;20521;-76
2023/09/16 04:57:20;;;;;;;24.30;20.13;;;14.20;99.90;;;;;;5013568;28;20037;-77
2023/09/16 04:59:45;;;;;;;24.38;20.27;;;14.20;99.90;;;;;;5013542;28;20045;-77
2023/09/16 05:02:11;;;;;;;28.67;20.95;;;14.20;99.90;;;;;;5013440;28;20088;-76
2023/09/16 05:04:37;;;;;;;29.45;20.83;;;14.20;99.90;;;;;;5013213;28;20108;-76
2023/09/16 05:07:04;;;;;;;28.27;20.58;;;14.10;99.90;;;;;;5014887;28;20034;-76
2023/09/16 05:09:30;;;;;;;25.75;20.65;;;14.20;99.90;;;;;;5013376;28;20564;-76
2023/09/16 05:11:56;;;;;;;23.23;19.52;;;14.10;99.90;;;;;;5014828;28;20505;-76
2023/09/16 05:14:23;;;;;;;25.58;19.95;;;14.10;99.90;;;;;;5013559;28;20044;-76
2023/09/16 05:16:49;;;;;;;28.67;21.05;;;14.10;99.90;;;;;;5013759;28;20085;-77
2023/09/16 05:19:14;;;;;;;25.35;20.05;;;14.00;99.90;;;;;;5012789;28;20046;-76
2023/09/16 05:21:40;;;;;;;27.50;20.77;;;14.00;99.90;;;;;;5014773;28;20044;-77
2023/09/16 05:24:06;;;;;;;26.08;19.52;;;14.10;99.90;;;;;;5013390;28;20037;-76
2023/09/16 05:26:31;;;;;;;27.05;19.58;;;14.00;99.90;;;;;;5014775;28;20408;-77
2023/09/16 05:28:57;;;;;;;25.52;19.63;;;14.00;99.90;;;;;;5014066;28;20038;-77
2023/09/16 05:31:23;;;;;;;23.30;18.77;;;14.00;99.90;;;;;;5012956;28;20041;-77
2023/09/16 05:33:49;;;;;;;27.10;19.83;;;14.10;99.90;;;;;;5012968;28;20132;-76
2023/09/16 05:36:16;;;;;;;27.33;20.92;;;14.10;99.90;;;;;;5012977;28;20501;-76
2023/09/16 05:38:41;;;;;;;26.63;19.05;;;14.10;99.90;;;;;;5013058;28;20125;-76
2023/09/16 05:41:07;;;;;;;25.63;19.42;;;14.10;99.90;;;;;;4997050;28;20138;-77
2023/09/16 05:43:33;;;;;;;23.73;18.35;;;14.10;99.90;;;;;;5014328;28;20077;-77
2023/09/16 05:46:00;;;;;;;29.52;21.05;;;14.10;99.90;;;;;;5012908;28;20069;-77
2023/09/16 05:48:26;;;;;;;25.25;19.83;;;14.10;99.90;;;;;;5012876;28;20397;-76
2023/09/16 05:50:59;;;;;;;25.92;20.73;;;14.10;99.90;;;;;;5012755;28;20038;-76
2023/09/16 05:53:25;;;;;;;25.20;20.70;;;14.10;99.90;;;;;;5013179;28;20041;-76
2023/09/16 05:55:51;;;;;;;24.35;20.75;;;14.20;99.90;;;;;;5013045;28;20042;-76
2023/09/16 05:58:17;;;;;;;27.00;20.50;;;14.20;99.90;;;;;;5012209;28;20049;-76
2023/09/16 06:00:43;;;;;;;28.85;21.90;;;14.20;99.90;;;;;;5013392;28;20038;-76
2023/09/16 06:03:09;;;;;;;28.75;22.00;;;14.20;99.90;;;;;;5013789;28;20053;-76
2023/09/16 06:05:34;;;;;;;27.65;22.33;;;14.30;99.90;;;;;;5012706;28;20045;-76
2023/09/16 06:08:00;;;;;;;30.27;23.70;;;14.30;99.90;;;;;;5012598;28;20045;-77
2023/09/16 06:10:26;;;;;;;25.63;21.00;;;14.40;99.90;;;;;;5013474;28;20030;-76
2023/09/16 06:12:52;;;;;;;29.92;22.35;;;14.50;99.90;;;;;;5012741;28;20397;-76
2023/09/16 06:15:18;;;;;;;31.45;22.80;;;14.50;99.90;;;;;;5012444;28;20137;-76
2023/09/16 06:17:43;;;;;;;28.98;22.77;;;14.60;99.90;;;;;;4996219;28;20053;-77
2023/09/16 06:20:09;;;;;;;27.73;21.92;;;14.70;99.90;;;;;;5012119;28;20164;-76
2023/09/16 06:22:35;;;;;;;27.45;22.77;;;14.90;99.90;;;;;;5012278;28;20494;-77
2023/09/16 06:25:01;;;;;;;28.05;23.00;;;15.10;99.90;;;;;;5012213;28;20087;-76
2023/09/16 06:27:27;;;;;;;29.98;21.73;;;15.30;99.90;;;;;;5012515;28;20046;-77
2023/09/16 06:29:53;;;;;;;28.42;22.95;;;15.50;99.90;;;;;;5012770;28;20046;-77
2023/09/16 06:32:19;;;;;;;29.10;21.65;;;15.60;99.90;;;;;;5013215;28;20420;-76
2023/09/16 06:34:45;;;;;;;29.80;22.73;;;15.80;99.90;;;;;;5013312;28;20472;-76
2023/09/16 06:37:10;;;;;;;28.23;21.58;;;15.80;99.90;;;;;;5011754;28;20125;-77
2023/09/16 06:39:37;;;;;;;24.40;21.17;;;16.00;99.90;;;;;;5011368;28;20417;-77
2023/09/16 06:42:04;;;;;;;29.55;22.05;;;16.10;99.90;;;;;;5011898;28;20053;-77
2023/09/16 06:44:30;;;;;;;27.00;20.90;;;16.20;99.90;;;;;;5010957;28;20042;-77
2023/09/16 06:46:56;;;;;;;22.50;19.17;;;16.30;99.90;;;;;;5011766;28;20038;-77
2023/09/16 06:49:22;;;;;;;28.23;20.98;;;16.50;99.90;;;;;;5011078;28;20034;-77
2023/09/16 06:51:47;;;;;;;29.42;21.42;;;16.60;99.90;;;;;;5011073;28;20429;-77
2023/09/16 06:54:13;;;;;;;26.17;20.90;;;16.70;99.90;;;;;;5011835;28;20050;-77
2023/09/16 06:56:39;;;;;;;24.63;19.15;;;16.90;99.90;;;;;;5011417;28;20045;-77
2023/09/16 06:59:04;;;;;;;28.50;20.23;;;17.00;99.90;;;;;;5010959;28;20042;-77
2023/09/16 07:01:30;;;;;;;27.58;18.52;;;17.10;99.90;;;;;;5012668;28;20051;-76
2023/09/16 07:03:57;;;;;;;25.55;18.52;;;17.20;99.90;;;;;;5012873;28;20129;-77
2023/09/16 07:06:22;;;;;;;30.30;19.75;;;17.40;99.90;;;;;;4994998;28;20045;-77
2023/09/16 07:08:48;;;;;;;22.52;17.05;;;17.50;99.90;;;;;;5010791;28;20045;-76
2023/09/16 07:11:15;;;;;;;21.45;17.05;;;17.70;99.90;;;;;;5011374;28;20045;-75
2023/09/16 07:13:40;;;;;;;23.85;17.58;;;17.80;99.90;;;;;;5012606;28;20122;-77
2023/09/16 07:16:06;;;;;;;21.80;16.80;;;18.00;99.90;;;;;;5012604;28;20113;-78
2023/09/16 07:18:31;;;;;;;21.65;16.50;;;18.10;99.90;;;;;;5011396;28;20113;-75
2023/09/16 07:20:57;;;;;;;20.55;15.65;;;18.30;99.90;;;;;;5010925;28;20108;-76
2023/09/16 07:23:23;;;;;;;18.67;15.63;;;18.60;99.90;;;;;;5012466;28;20466;-76
2023/09/16 07:25:56;;;;;;;20.23;15.65;;;18.80;99.90;;;;;;5013942;28;20039;-76
2023/09/16 07:28:23;;;;;;;19.83;15.70;;;19.00;99.90;;;;;;5022460;28;20048;-76
2023/09/16 07:30:48;;;;;;;18.30;15.32;;;18.90;99.90;;;;;;5070702;22;20462;-69
2023/09/16 07:33:14;;;;;;;21.90;18.40;;;18.60;99.90;;;;;;5060288;28;20051;-69
2023/09/16 07:35:39;;;;;;;21.42;15.65;;;18.50;99.90;;;;;;5067526;28;20044;-69
2023/09/16 07:38:05;;;;;;;19.38;16.55;;;18.70;99.90;;;;;;5072136;28;20048;-69
2023/09/16 07:40:32;;;;;;;22.10;16.90;;;18.90;99.90;;;;;;5070269;28;20232;-69
2023/09/16 07:42:58;;;;;;;20.00;16.80;;;19.00;99.90;;;;;;5071779;28;20044;-70
2023/09/16 07:45:24;;;;;;;20.40;15.30;;;19.10;99.90;;;;;;5071937;28;20043;-68
2023/09/16 07:47:49;;;;;;;18.83;14.70;;;19.30;99.90;;;;;;5071717;28;20032;-69
2023/09/16 07:50:15;;;;;;;17.40;14.55;;;19.40;99.90;;;;;;5071317;28;20380;-69
2023/09/16 07:52:42;;;;;;;18.85;15.55;;;19.30;99.90;;;;;;5071472;28;20048;-69
2023/09/16 07:55:07;;;;;;;17.75;14.98;;;19.40;99.90;;;;;;5042320;28;20440;-69
2023/09/16 07:57:33;;;;;;;16.17;14.15;;;19.30;99.90;;;;;;5051433;28;20033;-69
2023/09/16 07:59:59;;;;;;;19.17;15.07;;;19.20;99.90;;;;;;5050678;28;20530;-69
2023/09/16 08:02:25;;;;;;;18.55;16.13;;;19.10;99.90;;;;;;5056696;28;20033;-69
2023/09/16 08:04:50;;;;;;;18.42;16.25;;;18.90;99.90;;;;;;5061601;28;20083;-69
2023/09/16 08:07:16;;;;;;;18.15;15.07;;;18.80;99.90;;;;;;5063971;28;20040;-69
2023/09/16 08:09:42;;;;;;;18.48;15.75;;;18.60;99.90;;;;;;5070182;28;20032;-69
2023/09/16 08:12:07;;;;;;;19.15;15.25;;;18.50;99.90;;;;;;5051150;28;20041;-69
2023/09/16 08:14:33;;;;;;;22.13;17.38;;;18.40;99.90;;;;;;5051637;28;20045;-69
2023/09/16 08:17:02;;;;;;;18.75;14.88;;;18.40;99.90;;;;;;5050283;28;20048;-69
2023/09/16 08:19:31;;;;;;;20.00;16.20;;;18.50;99.90;;;;;;5049973;28;20124;-69
2023/09/16 08:21:57;;;;;;;20.33;16.23;;;18.70;99.90;;;;;;5052583;28;20040;-69
2023/09/16 08:24:22;;;;;;;17.30;15.50;;;18.80;99.90;;;;;;5059311;28;20492;-69
2023/09/16 08:26:48;;;;;;;20.42;16.60;;;18.80;99.90;;;;;;5059444;28;20401;-69
2023/09/16 08:29:14;;;;;;;18.10;15.15;;;18.90;99.90;;;;;;5059853;28;20393;-69
2023/09/16 08:31:39;;;;;;;17.27;14.88;;;19.10;99.90;;;;;;5051170;28;20033;-69
2023/09/16 08:34:05;;;;;;;17.50;14.27;;;19.60;99.90;;;;;;5051299;28;20499;-69
2023/09/16 08:36:31;;;;;;;17.20;14.55;;;19.80;99.90;;;;;;5051370;28;20420;-69
2023/09/16 08:38:56;;;;;;;16.95;14.23;;;20.00;99.90;;;;;;5051088;28;20431;-69
2023/09/16 08:41:37;;;;;;;16.25;13.82;;;20.30;99.90;;;;;;5051041;28;20040;-69
2023/09/16 08:44:05;;;;;;;17.83;14.15;;;20.40;99.90;;;;;;5050997;28;20440;-69
2023/09/16 08:46:33;;;;;;;16.30;13.57;;;20.20;99.90;;;;;;5051465;28;20124;-69
2023/09/16 08:49:05;;;;;;;18.05;14.55;;;20.00;99.90;;;;;;5050641;28;20048;-69
2023/09/16 08:51:35;;;;;;;15.07;12.80;;;19.80;99.90;;;;;;5045358;28;20075;-69
2023/09/16 08:54:03;;;;;;;16.77;13.93;;;19.70;99.90;;;;;;5049209;28;20056;-69
2023/09/16 08:56:32;;;;;;;16.05;14.00;;;19.60;99.90;;;;;;5050846;28;20044;-70
2023/09/16 08:58:58;;;;;;;21.42;16.05;;;19.70;99.90;;;;;;5050456;28;20067;-69
2023/09/16 09:01:24;;;;;;;20.90;17.05;;;19.80;99.90;;;;;;5050796;28;20128;-70
2023/09/16 09:03:50;;;;;;;20.30;17.42;;;20.20;99.90;;;;;;5050925;28;20041;-69
2023/09/16 09:06:17;;;;;;;18.63;15.65;;;20.40;99.90;;;;;;5050832;28;20490;-69
2023/09/16 09:08:43;;;;;;;18.85;14.43;;;20.50;99.90;;;;;;5054158;28;20099;-69
2023/09/16 09:11:14;;;;;;;16.63;13.05;;;20.60;99.90;;;;;;5053359;28;20610;-69
2023/09/16 09:13:42;;;;;;;14.93;12.80;;;20.70;99.90;;;;;;5054623;28;20041;-71
2023/09/16 09:16:08;;;;;;;18.30;13.38;;;20.80;99.90;;;;;;5053326;28;20041;-69
2023/09/16 09:18:36;;;;;;;14.13;11.68;;;20.90;99.90;;;;;;5053006;28;20056;-69
2023/09/16 09:21:04;;;;;;;16.67;11.70;;;20.90;99.90;;;;;;5053139;28;20106;-69
2023/09/16 09:23:30;;;;;;;16.02;11.40;;;21.20;99.90;;;;;;5054342;28;20049;-69
2023/09/16 09:25:57;;;;;;;19.20;13.38;;;21.20;99.90;;;;;;5053030;28;20419;-69
2023/09/16 09:28:23;;;;;;;19.52;12.90;;;21.20;99.90;;;;;;5054509;28;20052;-70
2023/09/16 09:30:49;;;;;;;18.60;14.10;;;21.20;99.90;;;;;;5054131;28;20041;-69
2023/09/16 09:33:19;;;;;;;17.67;12.90;;;21.20;99.90;;;;;;5054600;28;20033;-69
2023/09/16 09:35:45;;;;;;;16.25;12.48;;;21.20;99.90;;;;;;5053573;28;20515;-69
2023/09/16 09:38:11;;;;;;;17.45;12.02;;;21.30;99.90;;;;;;5053204;28;20037;-70
2023/09/16 09:40:37;;;;;;;15.27;10.23;;;21.30;99.90;;;;;;5053171;28;20053;-70
2023/09/16 09:43:03;;;;;;;12.98;9.43;;;21.20;99.90;;;;;;5053245;28;20128;-70
2023/09/16 09:45:35;;;;;;;10.40;9.05;;;21.20;99.90;;;;;;5054636;28;20041;-70
2023/09/16 09:48:00;;;;;;;13.88;9.57;;;21.30;99.90;;;;;;5054535;28;20043;-70
2023/09/16 09:50:30;;;;;;;10.23;7.18;;;21.30;99.90;;;;;;5054205;28;20124;-70
2023/09/16 09:52:56;;;;;;;10.00;7.03;;;21.40;99.90;;;;;;5054677;28;20033;-69
2023/09/16 09:55:23;;;;;;;11.50;7.35;;;21.40;99.90;;;;;;5053444;28;20045;-71
2023/09/16 09:57:50;;;;;;;11.43;7.20;;;21.50;99.90;;;;;;5052938;28;20045;-70
2023/09/16 10:00:18;;;;;;;9.07;6.32;;;21.60;99.90;;;;;;5054209;28;20045;-70
2023/09/16 10:02:45;;;;;;;7.25;5.47;;;21.60;99.90;;;;;;5052476;28;20063;-70
2023/09/16 10:05:21;;;;;;;9.07;6.28;;;21.60;99.90;;;;;;5053864;28;20416;-70
2023/09/16 10:07:48;;;;;;;8.43;5.07;;;21.60;99.90;;;;;;5053578;28;20053;-71
2023/09/16 10:10:17;;;;;;;9.05;5.97;;;21.60;99.90;;;;;;5053512;28;20063;-70
2023/09/16 10:12:47;;;;;;;7.47;5.90;;;21.60;99.90;;;;;;5053613;28;20497;-69
2023/09/16 10:15:13;;;;;;;8.55;5.65;;;21.80;99.90;;;;;;5052555;28;20045;-69
2023/09/16 10:17:44;;;;;;;9.65;5.88;;;22.30;99.90;;;;;;5052139;28;20041;-68
2023/09/16 10:20:12;;;;;;;7.80;5.90;;;22.30;99.90;;;;;;5051032;28;20045;-68
2023/09/16 10:22:40;;;;;;;8.00;4.60;;;22.40;99.90;;;;;;5054847;28;20033;-68
2023/09/16 10:25:07;;;;;;;5.82;3.92;;;22.50;99.90;;;;;;5062132;28;20045;-68
2023/09/16 10:28:06;;;;;;;6.30;4.30;;;22.60;99.90;;;;;;5052106;28;20044;-68
2023/09/16 10:30:34;;;;;;;6.90;4.18;;;22.60;99.90;;;;;;5036359;28;20041;-68
2023/09/16 10:33:01;;;;;;;6.82;3.90;;;22.80;99.90;;;;;;5053089;28;20099;-68
2023/09/16 10:35:30;;;;;;;6.35;4.20;;;22.80;99.90;;;;;;5053220;28;20055;-68
2023/09/16 10:37:58;;;;;;;5.93;4.03;;;22.90;99.90;;;;;;5052964;28;20491;-68
2023/09/16 10:40:25;;;;;;;9.65;5.00;;;22.90;99.90;;;;;;5052789;28;20041;-68
2023/09/16 10:42:52;;;;;;;7.32;4.28;;;22.80;99.90;;;;;;5052682;28;20037;-69
2023/09/16 10:45:18;;;;;;;7.57;4.80;;;22.90;99.90;;;;;;5053179;28;20033;-68
2023/09/16 10:47:51;;;;;;;5.90;4.82;;;22.90;99.90;;;;;;5053005;28;20040;-68
2023/09/16 10:50:18;;;;;;;7.50;5.15;;;22.90;99.00;;;;;;5051464;28;20037;-68
2023/09/16 10:53:01;;;;;;;9.05;5.10;;;22.90;99.60;;;;;;5052746;28;20033;-68
2023/09/16 10:55:48;;;;;;;7.82;4.45;;;22.90;99.00;;;;;;5052673;28;20086;-68
2023/09/16 10:58:29;;;;;;;5.90;4.55;;;23.00;99.90;;;;;;5034831;28;20558;-69
2023/09/16 11:00:58;;;;;;;8.68;4.70;;;22.90;99.90;;;;;;5052770;28;20037;-70
2023/09/16 11:03:30;;;;;;;5.88;4.35;;;22.70;99.90;;;;;;5051319;28;20099;-68
2023/09/16 11:05:58;;;;;;;7.57;4.30;;;22.70;99.90;;;;;;5052625;28;20041;-69
2023/09/16 11:08:27;;;;;;;8.10;4.10;;;22.70;99.90;;;;;;5052406;28;20496;-70
2023/09/16 11:10:54;;;;;;;6.57;4.63;;;22.80;99.90;;;;;;5052387;28;20072;-70
2023/09/16 11:13:28;;;;;;;5.18;3.92;;;22.80;99.90;;;;;;5051199;28;20047;-70
2023/09/16 11:16:00;;;;;;;6.47;4.65;;;22.80;99.90;;;;;;5052531;28;20062;-70
2023/09/16 11:18:27;;;;;;;9.30;4.80;;;22.80;99.90;;;;;;5050972;28;20091;-71
2023/09/16 11:20:54;;;;;;;7.40;4.68;;;22.60;99.90;;;;;;5051280;28;20052;-71
2023/09/16 11:23:21;;;;;;;7.00;4.45;;;22.50;99.90;;;;;;5050819;28;20492;-70
2023/09/16 11:25:47;;;;;;;9.07;4.72;;;22.50;99.90;;;;;;5052265;28;20041;-70
2023/09/16 11:28:19;;;;;;;5.35;4.10;;;22.40;99.90;;;;;;5050996;28;20033;-71
2023/09/16 11:30:55;;;;;;;7.10;4.70;;;22.40;99.90;;;;;;5051605;28;20037;-70
2023/09/16 11:33:31;;;;;;;5.80;4.25;;;22.40;99.90;;;;;;5052123;28;20049;-71
2023/09/16 11:36:14;;;;;;;6.50;4.47;;;22.50;99.90;;;;;;5052417;28;20047;-70
2023/09/16 11:39:11;;;;;;;6.47;3.95;;;22.40;99.90;;;;;;5050569;28;20041;-71
2023/09/16 11:41:37;;;;;;;7.22;4.72;;;22.50;99.90;;;;;;5052188;28;20048;-71
2023/09/16 11:44:04;;;;;;;9.13;6.05;;;22.40;99.90;;;;;;5050636;28;20047;-71
2023/09/16 11:46:31;;;;;;;8.88;5.43;;;22.50;99.90;;;;;;5051871;28;20512;-71
2023/09/16 11:49:00;;;;;;;8.63;5.28;;;22.50;99.90;;;;;;5050525;28;20045;-71
2023/09/16 11:51:26;;;;;;;8.88;4.82;;;22.50;99.90;;;;;;5050549;28;20112;-71
2023/09/16 11:53:53;;;;;;;5.03;3.35;;;22.60;99.90;;;;;;5050409;28;20492;-71
2023/09/16 11:56:24;;;;;;;5.93;3.40;;;22.50;99.90;;;;;;5051804;28;20040;-71
2023/09/16 11:58:50;;;;;;;4.85;3.05;;;22.60;99.90;;;;;;5050428;28;20082;-71
2023/09/16 12:01:25;;;;;;;5.13;2.83;;;22.70;99.90;;;;;;5051740;28;20166;-71
2023/09/16 12:03:51;;;;;;;7.55;3.47;;;22.60;99.90;;;;;;5050313;28;20037;-71
2023/09/16 12:06:20;;;;;;;6.03;3.20;;;22.60;99.90;;;;;;5051525;28;20048;-71
2023/09/16 12:08:47;;;;;;;4.47;3.15;;;22.60;99.80;;;;;;5050626;28;20048;-71
2023/09/16 12:11:13;;;;;;;6.32;3.67;;;22.60;99.90;;;;;;5051714;28;20373;-71
2023/09/16 12:13:42;;;;;;;4.72;2.80;;;22.60;99.90;;;;;;5051652;28;20098;-71
2023/09/16 12:16:09;;;;;;;7.93;3.95;;;22.60;99.90;;;;;;5050507;28;20412;-71
2023/09/16 12:18:35;;;;;;;6.25;4.05;;;22.60;99.90;;;;;;5033816;28;20049;-71
2023/09/16 12:21:02;;;;;;;6.90;3.80;;;22.60;99.90;;;;;;5051359;28;20041;-71
2023/09/16 12:23:30;;;;;;;5.38;3.85;;;22.50;99.90;;;;;;5044315;28;20088;-71
2023/09/16 12:25:55;;;;;;;5.47;3.33;;;22.60;99.90;;;;;;5050122;28;20037;-71
2023/09/16 12:28:24;;;;;;;5.50;3.72;;;22.60;99.90;;;;;;5051129;28;20465;-71
2023/09/16 12:30:52;;;;;;;5.38;3.70;;;22.60;99.90;;;;;;5050095;28;20052;-71